Time;durP1;ratioP1;P1;durP2;ratioP2;P2;SDS_P1;SDS_P2;PMS_P1;PMS_P2;Temp;Humidity;BMP_temperature;BMP_pressure;BME280_temperature;BME280_humidity;BME280_pressure;Samples;Min_cycle;Max_cycle;Signal;HPM_P1;HPM_P2
2023/02/22 00:00:41;;;;;;;;;;;19.60;42.00;;;;;;3056785;19;4421;-24
2023/02/22 00:02:09;;;;;;;;;;;19.60;42.10;;;;;;3056601;19;4465;-24
2023/02/22 00:03:15;;;;;;;;;;;19.60;42.00;;;;;;3054436;19;5719;-24
2023/02/22 00:04:19;;;;;;;;;;;19.60;42.00;;;;;;3055796;19;4501;-25
2023/02/22 00:05:21;;;;;;;;;;;19.60;42.10;;;;;;3055185;19;4440;-24
2023/02/22 00:06:23;;;;;;;;;;;19.60;42.00;;;;;;3055399;19;4382;-25
2023/02/22 00:07:24;;;;;;;;;;;19.60;42.00;;;;;;3052741;19;4573;-24
2023/02/22 00:08:29;;;;;;;;;;;19.60;42.00;;;;;;3055155;19;4622;-24
2023/02/22 00:09:30;;;;;;;;;;;19.60;42.00;;;;;;3054873;19;4573;-24
2023/02/22 00:10:30;;;;;;;;;;;19.60;42.00;;;;;;3054351;19;4339;-24
2023/02/22 00:11:31;;;;;;;;;;;19.60;42.00;;;;;;3052944;19;4540;-24
2023/02/22 00:12:31;;;;;;;;;;;19.60;42.00;;;;;;3054081;19;4684;-24
2023/02/22 00:13:32;;;;;;;;;;;19.60;42.00;;;;;;3052380;19;4407;-24
2023/02/22 00:14:33;;;;;;;;;;;19.60;42.00;;;;;;3053754;19;4485;-24
2023/02/22 00:15:34;;;;;;;;;;;19.60;42.10;;;;;;3053873;19;4524;-24
2023/02/22 00:16:34;;;;;;;;;;;19.60;42.00;;;;;;3055312;19;4400;-25
2023/02/22 00:17:35;;;;;;;;;;;19.60;42.00;;;;;;3053872;19;4380;-25
2023/02/22 00:18:36;;;;;;;;;;;19.60;42.10;;;;;;3054488;19;4312;-24
2023/02/22 00:19:37;;;;;;;;;;;19.50;42.00;;;;;;3053774;19;5058;-24
2023/02/22 00:20:38;;;;;;;;;;;19.50;42.00;;;;;;3054041;19;4379;-24
2023/02/22 00:21:38;;;;;;;;;;;19.50;42.00;;;;;;3054118;19;4481;-24
2023/02/22 00:22:45;;;;;;;;;;;19.50;41.90;;;;;;3052081;19;4442;-24
2023/02/22 00:23:46;;;;;;;;;;;19.50;41.90;;;;;;3054120;19;4553;-24
2023/02/22 00:24:47;;;;;;;;;;;19.50;41.90;;;;;;3054375;19;4606;-24
2023/02/22 00:25:48;;;;;;;;;;;19.50;41.80;;;;;;3054036;19;4482;-24
2023/02/22 00:26:50;;;;;;;;;;;19.50;41.90;;;;;;3053075;19;4204;-24
2023/02/22 00:27:51;;;;;;;;;;;19.50;41.90;;;;;;3055244;19;4508;-24
2023/02/22 00:28:52;;;;;;;;;;;19.50;42.00;;;;;;3053154;19;4525;-24
2023/02/22 00:29:55;;;;;;;;;;;19.50;41.80;;;;;;3055117;19;4510;-24
2023/02/22 00:30:56;;;;;;;;;;;19.50;41.90;;;;;;3053707;19;4275;-24
2023/02/22 00:31:57;;;;;;;;;;;19.50;41.90;;;;;;3052528;19;4524;-24
2023/02/22 00:32:57;;;;;;;;;;;19.50;41.90;;;;;;3055121;19;4308;-24
2023/02/22 00:33:59;;;;;;;;;;;19.50;41.80;;;;;;3054238;19;4445;-24
2023/02/22 00:35:00;;;;;;;;;;;19.50;41.90;;;;;;3055184;19;4483;-24
2023/02/22 00:36:00;;;;;;;;;;;19.50;41.90;;;;;;3053149;19;4452;-24
2023/02/22 00:37:03;;;;;;;;;;;19.50;41.80;;;;;;3053127;19;4439;-24
2023/02/22 00:38:03;;;;;;;;;;;19.50;41.90;;;;;;3053297;19;4335;-24
2023/02/22 00:39:06;;;;;;;;;;;19.50;41.90;;;;;;3052553;19;4406;-24
2023/02/22 00:40:09;;;;;;;;;;;19.50;42.00;;;;;;3053763;19;4273;-25
2023/02/22 00:41:10;;;;;;;;;;;19.50;41.90;;;;;;3053204;19;4466;-25
2023/02/22 00:42:11;;;;;;;;;;;19.40;41.80;;;;;;3053331;19;4458;-25
2023/02/22 00:43:11;;;;;;;;;;;19.50;41.80;;;;;;3051018;19;4484;-24
2023/02/22 00:44:12;;;;;;;;;;;19.40;41.80;;;;;;3054476;19;4556;-25
2023/02/22 00:45:15;;;;;;;;;;;19.40;42.50;;;;;;3055005;19;4090;-24
2023/02/22 00:46:15;;;;;;;;;;;19.40;41.80;;;;;;3055099;19;4442;-24
2023/02/22 00:47:16;;;;;;;;;;;19.40;41.80;;;;;;3051467;19;4637;-24
2023/02/22 00:48:17;;;;;;;;;;;19.40;41.80;;;;;;3052834;19;4361;-24
2023/02/22 00:49:17;;;;;;;;;;;19.40;41.80;;;;;;3053128;19;4376;-24
2023/02/22 00:50:18;;;;;;;;;;;19.40;41.80;;;;;;3051908;19;4258;-24
2023/02/22 00:51:19;;;;;;;;;;;19.40;41.80;;;;;;3054939;19;4524;-24
2023/02/22 00:52:19;;;;;;;;;;;19.40;41.80;;;;;;3053288;19;4581;-24
2023/02/22 00:53:21;;;;;;;;;;;19.40;41.80;;;;;;3054063;19;4242;-25
2023/02/22 00:54:22;;;;;;;;;;;19.40;41.80;;;;;;3054378;19;4519;-24
2023/02/22 00:55:26;;;;;;;;;;;19.40;41.80;;;;;;3055307;19;4498;-24
2023/02/22 00:56:27;;;;;;;;;;;19.40;41.80;;;;;;3054452;19;4498;-24
2023/02/22 00:57:27;;;;;;;;;;;19.40;41.90;;;;;;3053929;19;4661;-24
2023/02/22 00:58:28;;;;;;;;;;;19.40;41.90;;;;;;3055374;19;4376;-24
2023/02/22 00:59:30;;;;;;;;;;;19.40;41.80;;;;;;3054820;19;4487;-28
2023/02/22 01:00:34;;;;;;;;;;;19.40;41.80;;;;;;3054042;19;4372;-24
2023/02/22 01:01:34;;;;;;;;;;;19.40;41.80;;;;;;3055583;19;4617;-24
2023/02/22 01:02:35;;;;;;;;;;;19.40;41.90;;;;;;3054500;19;4520;-24
2023/02/22 01:03:40;;;;;;;;;;;19.40;41.90;;;;;;3054833;19;4222;-24
2023/02/22 01:04:40;;;;;;;;;;;19.40;41.90;;;;;;3055831;19;4575;-24
2023/02/22 01:05:41;;;;;;;;;;;19.40;41.80;;;;;;3056013;19;4515;-24
2023/02/22 01:06:42;;;;;;;;;;;19.30;41.70;;;;;;3054511;19;4570;-24
2023/02/22 01:07:42;;;;;;;;;;;19.30;41.80;;;;;;3054342;19;4480;-24
2023/02/22 01:08:46;;;;;;;;;;;19.30;41.70;;;;;;3053830;19;4478;-24
2023/02/22 01:09:47;;;;;;;;;;;19.30;41.70;;;;;;3051490;19;4530;-24
2023/02/22 01:10:48;;;;;;;;;;;19.30;41.70;;;;;;3051860;19;4366;-24
2023/02/22 01:11:54;;;;;;;;;;;19.30;41.80;;;;;;3052028;19;4341;-24
2023/02/22 01:12:55;;;;;;;;;;;19.30;41.70;;;;;;3051894;19;4528;-23
2023/02/22 01:13:56;;;;;;;;;;;19.30;41.80;;;;;;3053179;19;4474;-25
2023/02/22 01:14:57;;;;;;;;;;;19.30;41.80;;;;;;3053979;19;4505;-24
2023/02/22 01:15:59;;;;;;;;;;;19.30;41.70;;;;;;3050758;19;4445;-24
2023/02/22 01:17:00;;;;;;;;;;;19.30;41.80;;;;;;3053283;19;4511;-24
2023/02/22 01:18:00;;;;;;;;;;;19.30;41.80;;;;;;3053605;19;4300;-24
2023/02/22 01:19:01;;;;;;;;;;;19.30;41.70;;;;;;3053683;19;4501;-24
2023/02/22 01:20:09;;;;;;;;;;;19.30;41.70;;;;;;3052575;19;4311;-24
2023/02/22 01:21:09;;;;;;;;;;;19.30;41.80;;;;;;3054057;19;4508;-25
2023/02/22 01:22:10;;;;;;;;;;;19.30;41.70;;;;;;3053993;19;4215;-25
2023/02/22 01:23:11;;;;;;;;;;;19.30;41.70;;;;;;3054213;19;1845;-24
2023/02/22 01:24:15;;;;;;;;;;;19.30;41.80;;;;;;3053805;19;4350;-25
2023/02/22 01:25:17;;;;;;;;;;;19.30;41.70;;;;;;3054126;19;4426;-24
2023/02/22 01:26:18;;;;;;;;;;;19.30;41.70;;;;;;3054477;19;4704;-24
2023/02/22 01:27:19;;;;;;;;;;;19.30;41.80;;;;;;3053312;19;4371;-25
2023/02/22 01:28:21;;;;;;;;;;;19.20;41.70;;;;;;3054486;19;4519;-24
2023/02/22 01:29:22;;;;;;;;;;;19.30;41.70;;;;;;3053108;19;4527;-24
2023/02/22 01:30:25;;;;;;;;;;;19.20;41.70;;;;;;3053990;19;4327;-24
2023/02/22 01:31:26;;;;;;;;;;;19.20;41.70;;;;;;3053754;19;4494;-24
2023/02/22 01:32:26;;;;;;;;;;;19.20;41.70;;;;;;3053730;19;4373;-24
2023/02/22 01:33:27;;;;;;;;;;;19.20;41.70;;;;;;3053740;19;4282;-24
2023/02/22 01:34:29;;;;;;;;;;;19.20;41.70;;;;;;3054591;19;4556;-24
2023/02/22 01:35:34;;;;;;;;;;;19.20;41.70;;;;;;3052354;19;4484;-24
2023/02/22 01:36:35;;;;;;;;;;;19.20;42.30;;;;;;3050928;19;4536;-24
2023/02/22 01:37:35;;;;;;;;;;;19.20;41.70;;;;;;3053218;19;4537;-24
2023/02/22 01:38:37;;;;;;;;;;;19.20;41.70;;;;;;3053756;19;4476;-24
2023/02/22 01:39:38;;;;;;;;;;;19.20;41.70;;;;;;3054557;19;4553;-24
2023/02/22 01:40:40;;;;;;;;;;;19.20;41.70;;;;;;3054770;19;4412;-25
2023/02/22 01:41:41;;;;;;;;;;;19.20;41.60;;;;;;3055240;19;4543;-24
2023/02/22 01:42:43;;;;;;;;;;;19.20;41.70;;;;;;3055057;19;4531;-24
2023/02/22 01:43:44;;;;;;;;;;;19.20;41.60;;;;;;3054601;19;4328;-24
2023/02/22 01:44:45;;;;;;;;;;;19.20;41.70;;;;;;3054773;19;4379;-24
2023/02/22 01:45:56;;;;;;;;;;;19.20;41.60;;;;;;3055222;19;4370;-24
2023/02/22 01:46:57;;;;;;;;;;;19.20;41.70;;;;;;3054745;19;4236;-24
2023/02/22 01:48:00;;;;;;;;;;;19.20;41.60;;;;;;3053794;19;4476;-24
2023/02/22 01:49:05;;;;;;;;;;;19.20;41.60;;;;;;3053884;19;4515;-24
2023/02/22 01:50:05;;;;;;;;;;;19.20;41.60;;;;;;3054997;19;4289;-24
2023/02/22 01:51:20;;;;;;;;;;;19.20;41.60;;;;;;3053983;19;4323;-24
2023/02/22 01:52:21;;;;;;;;;;;19.20;41.70;;;;;;2952293;19;2004448;-25
2023/02/22 01:53:25;;;;;;;;;;;19.20;41.60;;;;;;3051310;19;4343;-24
2023/02/22 01:54:34;;;;;;;;;;;19.20;41.60;;;;;;3051652;19;4393;-24
2023/02/22 01:55:34;;;;;;;;;;;19.20;41.60;;;;;;3054353;19;4678;-24
2023/02/22 01:56:37;;;;;;;;;;;19.20;41.70;;;;;;3052617;19;4519;-25
2023/02/22 01:57:37;;;;;;;;;;;19.20;41.70;;;;;;3053060;19;4512;-24
2023/02/22 01:58:40;;;;;;;;;;;19.20;41.60;;;;;;3052970;19;4511;-24
2023/02/22 01:59:42;;;;;;;;;;;19.20;41.60;;;;;;3054850;19;4439;-24
2023/02/22 02:00:43;;;;;;;;;;;19.20;41.60;;;;;;3052919;19;4552;-24
2023/02/22 02:01:44;;;;;;;;;;;19.20;41.60;;;;;;3054459;19;4685;-24
2023/02/22 02:02:57;;;;;;;;;;;19.10;41.50;;;;;;3051848;19;4494;-24
2023/02/22 02:04:00;;;;;;;;;;;19.10;41.50;;;;;;3053957;19;4313;-24
2023/02/22 02:05:01;;;;;;;;;;;19.10;41.50;;;;;;3053981;19;4330;-24
2023/02/22 02:06:03;;;;;;;;;;;19.10;41.50;;;;;;3053967;19;4467;-24
2023/02/22 02:07:05;;;;;;;;;;;19.10;41.50;;;;;;3052325;19;4334;-24
2023/02/22 02:08:37;;;;;;;;;;;19.10;41.50;;;;;;3050384;19;4441;-24
2023/02/22 02:09:59;;;;;;;;;;;19.10;41.50;;;;;;2950619;19;2004094;-25
2023/02/22 02:11:01;;;;;;;;;;;19.10;41.50;;;;;;3051383;19;4348;-25
2023/02/22 02:12:04;;;;;;;;;;;19.10;41.50;;;;;;3051132;19;4349;-25
2023/02/22 02:13:04;;;;;;;;;;;19.10;41.50;;;;;;3051893;19;4313;-25
2023/02/22 02:14:06;;;;;;;;;;;19.10;41.50;;;;;;3054855;19;4445;-25
2023/02/22 02:15:17;;;;;;;;;;;19.10;41.50;;;;;;3055080;19;4429;-26
2023/02/22 02:16:20;;;;;;;;;;;19.10;41.60;;;;;;3055645;19;4316;-25
2023/02/22 02:17:21;;;;;;;;;;;19.10;41.40;;;;;;3055081;19;4516;-25
2023/02/22 02:18:22;;;;;;;;;;;19.10;41.50;;;;;;3055871;19;4532;-25
2023/02/22 02:19:44;;;;;;;;;;;19.10;41.50;;;;;;3056037;19;4603;-25
2023/02/22 02:22:37;;;;;;;;;;;19.10;41.50;;;;;;3043076;19;1594;-81
2023/02/22 02:23:39;;;;;;;;;;;19.10;41.40;;;;;;2952911;19;2003901;-82
2023/02/22 02:24:52;;;;;;;;;;;19.10;41.50;;;;;;3058054;19;4888;-79
2023/02/22 02:25:59;;;;;;;;;;;19.10;41.40;;;;;;3057133;19;4818;-77
2023/02/22 02:27:15;;;;;;;;;;;19.00;41.40;;;;;;3054412;19;4914;-79
2023/02/22 02:28:26;;;;;;;;;;;19.10;41.40;;;;;;2951975;19;2004364;-79
2023/02/22 02:29:54;;;;;;;;;;;19.10;41.40;;;;;;3056088;19;4795;-79
2023/02/22 02:31:07;;;;;;;;;;;19.00;41.30;;;;;;3057718;19;4390;-78
2023/02/22 02:32:32;;;;;;;;;;;19.00;41.30;;;;;;3057503;19;4591;-79
